Time;durP1;ratioP1;P1;durP2;ratioP2;P2;SDS_P1;SDS_P2;PMS_P1;PMS_P2;Temp;Humidity;BMP_temperature;BMP_pressure;BME280_temperature;BME280_humidity;BME280_pressure;Samples;Min_cycle;Max_cycle;Signal;HPM_P1;HPM_P2
2022/12/07 00:01:06;;;;;;;9.93;6.80;;;7.60;85.60;;;10.43;60.80;101262.06;5093165;28;20655;-56
2022/12/07 00:03:34;;;;;;;8.00;6.30;;;7.50;86.20;;;10.41;60.76;101265.81;5093192;28;20210;-54
2022/12/07 00:06:03;;;;;;;7.53;6.40;;;7.60;85.60;;;10.38;60.39;101260.88;5093711;28;20207;-57
2022/12/07 00:08:31;;;;;;;6.90;6.20;;;7.50;85.40;;;10.35;61.05;101256.75;5093499;28;20227;-54
2022/12/07 00:11:03;;;;;;;7.37;6.33;;;7.50;85.50;;;10.32;60.74;101257.06;5092113;28;20558;-53
2022/12/07 00:13:30;;;;;;;10.77;6.80;;;7.40;85.20;;;10.30;60.94;101259.03;5093601;28;20173;-53
2022/12/07 00:16:01;;;;;;;9.63;6.23;;;7.40;85.20;;;10.27;60.41;101264.63;5093385;28;20289;-56
2022/12/07 00:18:29;;;;;;;7.63;6.37;;;7.40;85.10;;;10.26;60.76;101256.88;5093301;28;20608;-55
2022/12/07 00:21:00;;;;;;;8.50;6.37;;;7.40;85.10;;;10.23;60.79;101258.03;5093072;28;20189;-54
2022/12/07 00:23:27;;;;;;;6.30;5.70;;;7.30;85.00;;;10.21;60.24;101249.47;5093399;28;20178;-55
2022/12/07 00:25:54;;;;;;;7.23;5.50;;;7.30;85.00;;;10.19;60.28;101251.44;5093301;28;20192;-57
2022/12/07 00:28:22;;;;;;;7.20;5.77;;;7.30;85.00;;;10.17;60.39;101248.16;5083290;28;20223;-53
2022/12/07 00:30:49;;;;;;;6.47;5.10;;;7.30;85.00;;;10.14;60.37;101251.09;5073088;28;20197;-54
2022/12/07 00:33:16;;;;;;;7.80;5.80;;;7.20;84.90;;;10.12;60.64;101260.97;5072851;28;20259;-57
2022/12/07 00:35:43;;;;;;;7.70;5.87;;;7.20;84.80;;;10.08;60.27;101255.16;5072909;28;20225;-53
2022/12/07 00:38:10;;;;;;;7.87;5.93;;;7.20;84.90;;;10.08;60.52;101254.31;5072705;28;20584;-57
2022/12/07 00:40:37;;;;;;;7.30;5.60;;;7.20;85.00;;;10.06;60.85;101251.03;5072525;28;20250;-57
2022/12/07 00:43:04;;;;;;;7.37;6.30;;;7.20;85.10;;;10.07;60.95;101257.94;5072846;28;20570;-56
2022/12/07 00:45:32;;;;;;;6.37;5.30;;;7.20;85.20;;;10.08;60.89;101252.50;5075315;28;20598;-55
2022/12/07 00:48:00;;;;;;;8.57;5.77;;;7.10;84.90;;;10.10;60.11;101247.13;5092818;28;20234;-55
2022/12/07 00:50:27;;;;;;;7.10;5.87;;;7.10;85.10;;;10.12;60.51;101251.28;5092746;28;20189;-52
2022/12/07 00:52:55;;;;;;;6.80;5.77;;;7.10;85.10;;;10.14;60.30;101253.72;5092945;28;20564;-54
2022/12/07 00:55:22;;;;;;;5.60;5.00;;;7.20;85.30;;;10.14;60.61;101244.03;5092906;28;20224;-54
2022/12/07 00:57:48;;;;;;;9.43;5.77;;;7.20;85.20;;;10.14;60.32;101244.03;5087227;28;20201;-56
2022/12/07 01:00:16;;;;;;;8.40;5.73;;;7.20;85.10;;;10.14;59.92;101237.94;5072776;28;20194;-56
2022/12/07 01:02:44;;;;;;;6.47;5.80;;;7.20;84.80;;;10.10;60.33;101241.84;5071172;28;20922;-54
2022/12/07 01:05:11;;;;;;;7.80;5.33;;;7.20;84.60;;;10.07;59.91;101248.25;5072966;28;20189;-54
2022/12/07 01:07:38;;;;;;;5.40;4.63;;;7.10;84.50;;;10.07;60.24;101242.16;5072607;28;20247;-56
2022/12/07 01:10:07;;;;;;;8.47;5.27;;;7.10;84.40;;;10.06;60.64;101240.50;5075111;28;20673;-55
2022/12/07 01:12:34;;;;;;;8.20;5.17;;;7.10;84.40;;;10.04;60.04;101247.72;5079203;28;20231;-54
2022/12/07 01:15:01;;;;;;;6.87;5.00;;;7.10;84.40;;;10.04;59.79;101239.84;5096167;28;20216;-55
2022/12/07 01:17:29;;;;;;;8.07;5.27;;;7.10;84.20;;;10.02;60.08;101241.81;5096501;28;20246;-53
2022/12/07 01:19:57;;;;;;;15.23;5.90;;;7.10;84.20;;;10.02;60.09;101249.72;5096399;28;20193;-54
2022/12/07 01:22:24;;;;;;;8.20;4.93;;;7.10;84.00;;;10.03;60.27;101246.09;5096073;28;20216;-55
2022/12/07 01:24:51;;;;;;;10.30;5.00;;;7.10;84.00;;;10.06;60.18;101251.03;5096213;28;20234;-57
2022/12/07 01:27:18;;;;;;;7.23;4.77;;;7.00;84.00;;;10.09;60.17;101251.53;5095247;28;20204;-57
2022/12/07 01:29:45;;;;;;;7.07;5.20;;;7.10;84.00;;;10.11;59.80;101259.28;5096384;28;20263;-54
2022/12/07 01:32:12;;;;;;;9.73;4.50;;;7.10;83.90;;;10.11;60.03;101243.50;5095914;28;20615;-54
2022/12/07 01:34:39;;;;;;;7.43;4.13;;;7.00;83.70;;;10.12;60.01;101247.81;5095901;28;20330;-54
2022/12/07 01:37:08;;;;;;;5.73;4.10;;;7.10;83.50;;;10.10;59.28;101241.84;5095883;28;20188;-56
2022/12/07 01:39:35;;;;;;;5.00;3.83;;;7.10;83.40;;;10.10;59.08;101239.22;5095416;28;20185;-56
2022/12/07 01:42:02;;;;;;;4.80;4.17;;;7.10;83.20;;;10.11;59.32;101238.22;5095900;28;20220;-56
2022/12/07 01:44:31;;;;;;;4.63;3.77;;;7.10;83.10;;;10.12;59.50;101234.66;5076326;28;20208;-56
2022/12/07 01:47:01;;;;;;;5.23;3.53;;;7.10;82.90;;;10.11;58.99;101228.56;5075336;28;20235;-54
2022/12/07 01:49:35;;;;;;;6.13;3.57;;;7.10;82.80;;;10.11;58.93;101232.97;5075543;28;20242;-53
2022/12/07 01:52:14;;;;;;;5.77;3.37;;;7.10;82.70;;;10.09;59.27;101230.50;5075129;28;20213;-55
2022/12/07 01:54:42;;;;;;;3.40;2.77;;;7.10;82.50;;;10.10;59.36;101236.59;5075684;28;20224;-56
2022/12/07 01:57:11;;;;;;;6.67;3.10;;;7.10;82.30;;;10.09;59.07;101234.94;5075307;28;20188;-53
2022/12/07 01:59:41;;;;;;;5.47;2.53;;;7.10;82.20;;;10.09;58.42;101232.31;5075026;28;20194;-56
2022/12/07 02:02:18;;;;;;;8.50;3.63;;;7.10;82.40;;;10.06;58.52;101230.00;5075137;28;20579;-56
2022/12/07 02:04:46;;;;;;;4.37;2.43;;;7.10;82.20;;;10.06;58.88;101230.00;5075077;28;20581;-56
2022/12/07 02:07:15;;;;;;;7.27;2.90;;;7.10;82.10;;;10.04;58.73;101226.69;5075317;28;20193;-54
2022/12/07 02:09:42;;;;;;;4.60;2.80;;;7.10;82.10;;;10.03;58.92;101225.06;5075148;28;20193;-53
2022/12/07 02:12:09;;;;;;;7.20;3.27;;;7.10;82.00;;;10.00;59.09;101220.13;5074584;28;20221;-54
2022/12/07 02:14:37;;;;;;;4.83;2.90;;;7.00;81.80;;;10.00;58.32;101214.88;5075074;28;20213;-53
2022/12/07 02:17:14;;;;;;;4.30;2.73;;;7.00;81.90;;;9.96;58.37;101218.81;5075057;28;20721;-53
2022/12/07 02:20:21;;;;;;;5.07;3.10;;;7.00;82.60;;;9.90;58.25;101220.25;5074783;28;20176;-53
2022/12/07 02:23:22;;;;;;;3.40;2.87;;;7.00;82.10;;;9.86;58.93;101218.09;5074808;28;20263;-56
2022/12/07 02:26:26;;;;;;;4.90;3.20;;;7.00;82.10;;;9.83;58.86;101213.16;5074733;28;20183;-54
2022/12/07 02:29:13;;;;;;;5.67;3.20;;;6.90;82.00;;;9.77;58.43;101208.53;5089222;28;20203;-55
2022/12/07 02:31:50;;;;;;;5.53;3.03;;;6.90;82.10;;;9.76;59.04;101206.88;5094834;28;20208;-53
2022/12/07 02:34:30;;;;;;;5.47;3.50;;;6.90;82.20;;;9.73;58.64;101201.91;5094729;28;20188;-53
2022/12/07 02:37:03;;;;;;;4.97;3.17;;;6.80;82.10;;;9.72;59.04;101205.53;5094820;28;20222;-54
2022/12/07 02:39:45;;;;;;;8.90;3.27;;;6.80;82.30;;;9.69;58.82;101198.78;5094657;28;20253;-53
2022/12/07 02:42:21;;;;;;;6.93;3.60;;;6.80;82.40;;;9.69;58.52;101201.44;5098457;28;20607;-54
2022/12/07 02:44:52;;;;;;;5.97;3.80;;;6.80;82.40;;;9.70;58.47;101202.25;5094244;28;20195;-54
2022/12/07 02:47:23;;;;;;;4.83;3.50;;;6.80;82.40;;;9.68;59.02;101204.19;5094317;28;20193;-54
2022/12/07 02:49:52;;;;;;;5.77;3.50;;;6.70;82.40;;;9.68;58.44;101199.75;5094380;28;20563;-55
2022/12/07 02:52:19;;;;;;;4.27;3.67;;;6.70;82.50;;;9.68;58.48;101201.56;5092970;28;20270;-55
2022/12/07 02:54:46;;;;;;;6.43;3.97;;;6.70;82.50;;;9.70;58.50;101207.50;5094266;28;20201;-56
2022/12/07 02:57:35;;;;;;;7.23;4.10;;;6.70;82.50;;;9.70;58.64;101208.31;5094515;28;20196;-56
2022/12/07 03:00:09;;;;;;;4.67;3.10;;;6.70;82.70;;;9.74;59.06;101214.09;5074165;28;20200;-54
2022/12/07 03:02:50;;;;;;;7.80;3.47;;;6.70;82.70;;;9.77;58.76;101211.16;5072535;28;20589;-54
2022/12/07 03:05:55;;;;;;;5.90;3.20;;;6.70;82.70;;;9.77;58.38;101213.78;5073979;28;20223;-56
2022/12/07 03:08:34;;;;;;;7.13;3.30;;;6.70;82.70;;;9.80;58.80;101214.28;5074716;28;20183;-55
2022/12/07 03:11:07;;;;;;;5.50;3.00;;;6.70;82.90;;;9.86;58.34;101213.66;5073332;28;20178;-56
2022/12/07 03:13:45;;;;;;;8.07;3.27;;;6.70;82.70;;;9.88;58.40;101210.88;5080226;28;20207;-57
2022/12/07 03:16:19;;;;;;;5.57;2.90;;;6.80;82.60;;;9.89;58.88;101210.69;5073641;28;20224;-54
2022/12/07 03:18:53;;;;;;;5.20;2.80;;;6.80;82.40;;;9.90;58.77;101201.00;5074499;28;20211;-53
2022/12/07 03:21:24;;;;;;;4.20;2.80;;;6.80;82.50;;;9.92;58.43;101206.94;5074083;28;20217;-54
2022/12/07 03:23:56;;;;;;;3.53;2.30;;;6.80;82.40;;;9.92;58.74;101201.66;5076550;28;20200;-54
2022/12/07 03:26:31;;;;;;;4.20;2.73;;;6.90;82.40;;;9.93;58.49;101204.16;5094265;28;20172;-58
2022/12/07 03:29:07;;;;;;;4.37;2.43;;;6.90;82.40;;;9.96;58.34;101195.13;5094081;28;20232;-57
2022/12/07 03:31:42;;;;;;;7.73;2.70;;;6.90;82.20;;;9.98;58.27;101198.44;5092825;28;20563;-53
2022/12/07 03:34:16;;;;;;;2.70;1.90;;;6.90;82.10;;;10.00;58.33;101193.81;5093788;28;20192;-54
2022/12/07 03:36:48;;;;;;;4.00;1.60;;;6.90;82.10;;;10.01;58.74;101192.81;5093568;28;20275;-54
2022/12/07 03:39:24;;;;;;;5.30;1.80;;;6.90;82.20;;;10.03;58.27;101198.78;5093475;28;20189;-54
2022/12/07 03:41:52;;;;;;;3.83;1.97;;;6.90;82.00;;;10.03;57.94;101193.50;5093453;28;20704;-53
2022/12/07 03:44:22;;;;;;;3.87;1.93;;;7.00;82.10;;;10.05;58.52;101196.81;5093680;28;20205;-56
2022/12/07 03:47:01;;;;;;;2.50;1.63;;;6.90;81.80;;;10.07;58.01;101200.09;5079622;28;20192;-54
2022/12/07 03:49:40;;;;;;;2.23;1.47;;;7.00;81.90;;;10.09;57.77;101203.38;5072081;28;20263;-54
2022/12/07 03:52:19;;;;;;;4.43;1.50;;;7.00;81.90;;;10.10;57.81;101210.31;5072775;28;20211;-54
2022/12/07 03:54:54;;;;;;;4.83;1.50;;;7.00;82.00;;;10.14;58.11;101216.91;5071821;28;20209;-55
2022/12/07 03:57:23;;;;;;;5.27;1.57;;;7.00;82.00;;;10.15;58.16;101219.38;5073714;28;20199;-57
2022/12/07 03:59:53;;;;;;;5.00;2.30;;;7.10;82.20;;;10.16;58.15;101217.56;5073208;28;20199;-54
2022/12/07 04:02:24;;;;;;;5.50;2.70;;;7.10;82.40;;;10.16;58.49;101214.94;5072929;28;20255;-53
2022/12/07 04:04:52;;;;;;;5.37;2.60;;;7.10;82.50;;;10.16;58.37;101207.03;5073387;28;20593;-57
2022/12/07 04:07:19;;;;;;;5.70;2.97;;;7.10;82.60;;;10.13;58.51;101188.94;5073948;28;20197;-54
2022/12/07 04:09:46;;;;;;;5.67;3.17;;;7.10;82.60;;;10.10;58.15;101181.38;5085937;28;20200;-53
2022/12/07 04:12:13;;;;;;;8.03;3.20;;;7.10;82.50;;;10.03;58.15;101186.41;5096149;28;20738;-55
2022/12/07 04:14:40;;;;;;;5.73;3.20;;;7.10;82.20;;;9.99;58.75;101181.66;5095595;28;20196;-57
2022/12/07 04:17:09;;;;;;;8.03;3.20;;;7.10;82.20;;;9.98;58.46;101185.28;5093144;28;20676;-55
2022/12/07 04:19:37;;;;;;;5.83;2.97;;;7.00;82.20;;;9.98;58.80;101182.66;5095680;28;20184;-56
2022/12/07 04:22:06;;;;;;;5.90;3.57;;;7.00;82.30;;;9.96;58.52;101187.25;5092725;28;20235;-57
2022/12/07 04:24:34;;;;;;;4.47;3.27;;;7.00;82.50;;;9.94;58.50;101189.19;5093195;28;20193;-55
2022/12/07 04:27:01;;;;;;;4.67;2.97;;;7.00;82.60;;;9.93;58.07;101195.44;5093099;28;20184;-55
2022/12/07 04:29:28;;;;;;;6.93;3.40;;;6.90;82.70;;;9.92;58.26;101204.31;5093192;28;20193;-56
2022/12/07 04:31:55;;;;;;;5.37;3.57;;;6.90;82.80;;;9.92;58.37;101201.66;5092696;28;20215;-53
2022/12/07 04:34:22;;;;;;;6.10;3.67;;;6.90;83.10;;;9.92;59.00;101199.03;5093788;28;20204;-54
2022/12/07 04:36:51;;;;;;;5.43;3.93;;;6.90;83.30;;;9.92;58.71;101196.41;5093132;28;20216;-55
2022/12/07 04:39:22;;;;;;;6.03;4.27;;;6.90;83.30;;;9.92;58.71;101202.50;5092576;28;20204;-53
2022/12/07 04:41:50;;;;;;;6.23;3.80;;;6.90;83.30;;;9.92;59.02;101201.66;5092763;28;20572;-55
2022/12/07 04:44:18;;;;;;;4.77;3.60;;;6.80;83.20;;;9.91;59.00;101200.03;5077683;28;20706;-55
2022/12/07 04:46:48;;;;;;;7.90;4.70;;;6.90;83.30;;;9.92;58.92;101191.16;5076253;28;20684;-53
2022/12/07 04:49:15;;;;;;;7.87;4.13;;;6.90;83.40;;;9.93;58.46;101188.38;5076494;28;20642;-55
2022/12/07 04:51:43;;;;;;;6.27;4.33;;;6.80;83.30;;;9.92;58.75;101186.72;5074642;28;20211;-54
2022/12/07 04:54:13;;;;;;;7.67;4.27;;;6.90;83.40;;;9.93;58.47;101190.19;5076424;28;20193;-55
2022/12/07 04:56:40;;;;;;;8.20;4.47;;;6.90;83.40;;;9.93;58.89;101187.56;5076285;28;20209;-54
2022/12/07 04:59:07;;;;;;;6.03;3.93;;;6.80;83.30;;;9.93;58.58;101184.94;5076155;28;20190;-52
2022/12/07 05:01:34;;;;;;;6.20;3.80;;;6.80;83.30;;;9.94;59.07;101184.75;5075520;28;20267;-55
2022/12/07 05:04:02;;;;;;;7.63;3.90;;;6.80;83.30;;;9.95;58.64;101190.84;5076377;28;20326;-54
2022/12/07 05:06:29;;;;;;;5.70;3.63;;;6.80;83.30;;;9.95;58.76;101185.59;5090595;28;20290;-54
2022/12/07 05:08:56;;;;;;;5.83;3.17;;;6.80;83.30;;;9.95;58.76;101182.97;5096459;28;20192;-54
2022/12/07 05:11:39;;;;;;;7.43;3.10;;;6.80;83.20;;;9.94;58.43;101182.13;5096374;28;20588;-54
2022/12/07 05:14:11;;;;;;;5.40;3.30;;;6.80;83.00;;;9.91;58.50;101179.00;5096563;28;20189;-55
2022/12/07 05:16:39;;;;;;;6.20;3.23;;;6.80;82.90;;;9.89;58.49;101180.97;5096410;28;20201;-54
2022/12/07 05:19:07;;;;;;;5.13;3.10;;;6.80;83.00;;;9.87;58.56;101188.19;5096268;28;20683;-55
2022/12/07 05:21:35;;;;;;;4.50;2.93;;;6.80;82.80;;;9.85;58.91;101190.16;5095954;28;20208;-54
2022/12/07 05:24:04;;;;;;;6.33;3.00;;;6.80;82.90;;;9.82;58.76;101190.44;5096063;28;20265;-56
2022/12/07 05:26:33;;;;;;;3.93;2.87;;;6.80;82.70;;;9.77;58.73;101187.50;5095714;28;20204;-54
2022/12/07 05:29:00;;;;;;;6.90;2.77;;;6.70;82.50;;;9.72;58.77;101187.16;5082972;28;20269;-55
2022/12/07 05:31:27;;;;;;;5.10;2.37;;;6.70;82.50;;;9.65;58.84;101186.13;5075961;28;20198;-56
2022/12/07 05:33:56;;;;;;;5.97;2.50;;;6.70;82.50;;;9.63;58.96;101195.97;5076150;28;20200;-53
2022/12/07 05:36:23;;;;;;;7.07;2.60;;;6.70;82.60;;;9.60;58.73;101185.78;5075749;28;20676;-54
2022/12/07 05:38:50;;;;;;;3.83;2.27;;;6.60;82.60;;;9.60;59.11;101186.59;5075277;28;20199;-53
2022/12/07 05:44:06;;;;;;;5.87;2.20;;;6.60;82.70;;;9.57;58.58;101180.81;5076294;28;20197;-55
2022/12/07 05:46:33;;;;;;;4.73;2.07;;;6.60;82.70;;;9.54;59.18;101180.16;5075905;28;20226;-54
2022/12/07 05:49:01;;;;;;;3.90;2.13;;;6.60;82.70;;;9.53;58.56;101170.63;5075220;28;20196;-55
2022/12/07 05:51:28;;;;;;;5.70;2.20;;;6.50;82.60;;;9.53;58.63;101169.81;5075787;28;20703;-52
2022/12/07 05:53:55;;;;;;;5.47;2.30;;;6.50;82.70;;;9.53;58.99;101175.88;5075853;28;20553;-54
2022/12/07 05:56:23;;;;;;;6.57;2.30;;;6.50;82.70;;;9.52;58.59;101179.50;5075488;28;20289;-54
2022/12/07 06:01:37;;;;;;;4.17;2.03;;;6.50;82.80;;;9.48;58.72;101175.53;5075480;28;20208;-53
2022/12/07 06:04:04;;;;;;;3.00;1.80;;;6.50;82.90;;;9.46;59.15;101180.09;5074957;28;20197;-54
2022/12/07 06:06:31;;;;;;;3.70;1.93;;;6.50;82.80;;;9.47;58.75;101176.53;5090371;28;20556;-56
2022/12/07 06:08:58;;;;;;;5.43;2.07;;;6.50;82.80;;;9.46;58.88;101174.84;5095201;28;20243;-54
2022/12/07 06:14:11;;;;;;;4.43;2.10;;;6.50;83.40;;;9.50;59.25;101178.84;5095308;28;20479;-54
2022/12/07 06:16:39;;;;;;;5.13;2.13;;;6.50;83.70;;;9.57;58.95;101186.09;5094751;28;20224;-52
2022/12/07 06:19:06;;;;;;;3.30;2.00;;;6.50;83.50;;;9.61;59.12;101203.16;5095027;28;20197;-55
2022/12/07 06:21:34;;;;;;;4.60;1.90;;;6.50;83.40;;;9.66;59.50;101200.91;5094742;28;20216;-55
2022/12/07 06:24:01;;;;;;;4.93;2.10;;;6.60;83.80;;;9.73;59.36;101207.19;5095014;28;20671;-54
2022/12/07 06:26:28;;;;;;;3.90;2.20;;;6.60;83.40;;;9.78;58.91;101213.63;5094751;28;20210;-54
2022/12/07 06:28:55;;;;;;;7.13;2.80;;;6.60;83.30;;;9.83;59.15;101211.34;5094968;28;20191;-56
2022/12/07 06:31:22;;;;;;;4.40;2.53;;;6.70;83.40;;;9.89;59.20;101204.63;5094519;28;20696;-58
2022/12/07 06:33:51;;;;;;;2.97;1.80;;;6.70;83.70;;;9.98;59.11;101204.47;5094593;28;20636;-55
2022/12/07 06:36:18;;;;;;;4.00;1.90;;;6.80;84.00;;;10.08;59.23;101213.06;5095075;28;20258;-56
2022/12/07 06:38:54;;;;;;;8.30;3.30;;;6.90;83.60;;;10.15;58.85;101214.09;5093903;28;20192;-60
2022/12/07 06:41:21;;;;;;;4.17;2.40;;;6.90;82.60;;;10.18;58.30;101212.97;5094797;28;20211;-55
2022/12/07 06:43:49;;;;;;;2.43;1.67;;;7.00;82.20;;;10.20;58.04;101213.63;5094542;28;20196;-58
2022/12/07 06:46:23;;;;;;;4.60;1.37;;;7.00;81.70;;;10.19;57.69;101214.63;5093768;28;20188;-56
2022/12/07 06:48:51;;;;;;;3.90;1.80;;;7.00;81.40;;;10.15;57.78;101208.03;5094809;28;20200;-55
2022/12/07 06:51:18;;;;;;;3.70;1.67;;;7.00;81.40;;;10.09;57.48;101204.22;5094438;28;20231;-53
2022/12/07 06:53:45;;;;;;;8.30;1.40;;;7.00;81.30;;;10.03;57.95;101201.41;5094735;28;20189;-57
2022/12/07 06:56:12;;;;;;;5.83;1.60;;;7.00;81.30;;;9.98;57.80;101201.84;5094910;28;20221;-55
2022/12/07 06:58:40;;;;;;;5.73;1.50;;;6.90;81.30;;;9.95;57.49;101202.19;5095391;28;20195;-56
2022/12/07 07:01:10;;;;;;;6.00;1.50;;;6.90;81.30;;;9.90;57.70;101203.63;5093364;28;20196;-57
2022/12/07 07:03:37;;;;;;;4.70;1.67;;;6.90;81.50;;;9.87;58.16;101188.19;5094058;28;20200;-54
2022/12/07 07:06:07;;;;;;;4.20;2.00;;;6.80;81.50;;;9.85;57.70;101200.66;5093659;28;20192;-54
2022/12/07 07:08:35;;;;;;;3.30;2.00;;;6.80;81.60;;;9.82;58.34;101199.16;5093928;28;20295;-55
2022/12/07 07:11:03;;;;;;;6.07;1.90;;;6.80;81.80;;;9.79;57.83;101203.94;5093212;28;20209;-53
2022/12/07 07:13:31;;;;;;;4.23;2.00;;;6.80;82.00;;;9.77;58.41;101214.59;5094132;28;20249;-53
2022/12/07 07:15:58;;;;;;;4.80;1.57;;;6.80;82.30;;;9.77;57.92;101208.53;5094063;28;20200;-54
2022/12/07 07:18:26;;;;;;;5.37;1.90;;;6.70;82.40;;;9.77;58.61;101206.69;5094582;28;20268;-56
2022/12/07 07:20:53;;;;;;;13.70;2.00;;;6.70;82.50;;;9.78;58.25;101207.53;5093258;28;20192;-54
2022/12/07 07:23:22;;;;;;;3.50;1.60;;;6.70;82.50;;;9.80;58.67;101208.19;5093200;28;20273;-54
2022/12/07 07:25:49;;;;;;;3.40;1.53;;;6.70;82.60;;;9.79;58.37;101206.56;5094384;28;20184;-53
2022/12/07 07:28:17;;;;;;;4.23;1.50;;;6.70;82.70;;;9.79;58.77;101211.81;5093891;28;20246;-53
2022/12/07 07:30:44;;;;;;;2.93;1.50;;;6.70;82.60;;;9.77;58.49;101211.16;5092972;28;20188;-62
2022/12/07 07:33:11;;;;;;;5.60;1.93;;;6.70;82.60;;;9.74;58.54;101208.84;5093991;28;20303;-56
2022/12/07 07:35:39;;;;;;;4.03;1.50;;;6.70;82.70;;;9.71;58.51;101206.50;5093556;28;20188;-55
2022/12/07 07:38:06;;;;;;;3.70;1.40;;;6.70;82.60;;;9.68;58.68;101206.81;5092461;28;20212;-55
2022/12/07 07:40:35;;;;;;;7.20;1.73;;;6.70;82.60;;;9.66;58.80;101203.53;5093377;28;20188;-54
2022/12/07 07:43:03;;;;;;;3.20;1.53;;;6.70;82.70;;;9.63;58.65;101195.97;5093212;28;20270;-56
2022/12/07 07:45:30;;;;;;;4.80;1.57;;;6.60;82.60;;;9.60;58.78;101199.75;5092502;28;20558;-55
2022/12/07 07:47:57;;;;;;;3.83;1.47;;;6.60;82.70;;;9.59;59.07;101202.50;5094008;28;20220;-55
2022/12/07 07:50:24;;;;;;;6.30;2.20;;;6.60;82.80;;;9.55;59.21;101200.19;5093453;28;20652;-53
2022/12/07 07:52:52;;;;;;;3.50;1.53;;;6.60;82.90;;;9.57;58.82;101197.41;5091962;28;20208;-51
2022/12/07 07:55:19;;;;;;;2.20;1.60;;;6.50;82.80;;;9.61;59.02;101195.28;5093718;28;20263;-53
2022/12/07 07:57:47;;;;;;;5.67;2.17;;;6.60;83.00;;;9.64;59.15;101202.88;5093526;28;20218;-54
2022/12/07 08:00:22;;;;;;;5.07;2.30;;;6.60;82.90;;;9.69;58.53;101209.31;5093954;28;20192;-54
2022/12/07 08:02:50;;;;;;;6.37;1.93;;;6.60;83.20;;;9.77;59.49;101213.78;5093755;28;20541;-54
2022/12/07 08:05:17;;;;;;;7.60;2.30;;;6.70;83.40;;;9.84;58.54;101217.44;5095412;28;20192;-55
2022/12/07 08:07:44;;;;;;;2.87;1.80;;;6.70;82.80;;;9.86;58.72;101218.94;5096501;28;20193;-55
2022/12/07 08:10:13;;;;;;;1.67;1.37;;;6.70;82.50;;;9.90;58.20;101214.16;5096355;28;20260;-57
2022/12/07 08:15:31;;;;;;;3.40;2.23;;;6.70;82.50;;;9.89;58.08;101223.03;5094627;28;20193;-55
2022/12/07 08:17:59;;;;;;;6.17;1.83;;;6.80;82.50;;;9.88;57.93;101222.22;5096014;28;20648;-57
2022/12/07 08:20:26;;;;;;;4.77;2.00;;;6.80;82.20;;;9.85;58.42;101219.91;5097858;28;20184;-57
2022/12/07 08:22:53;;;;;;;4.80;1.57;;;6.80;82.10;;;9.87;58.20;101214.47;5098591;28;20205;-52
2022/12/07 08:25:22;;;;;;;3.13;1.60;;;6.70;82.10;;;9.87;58.49;101220.56;5099033;28;20292;-54
2022/12/07 08:27:50;;;;;;;2.47;1.47;;;6.80;81.80;;;9.88;58.22;101222.22;5098583;28;20640;-55
2022/12/07 08:30:18;;;;;;;2.80;1.60;;;6.80;81.80;;;9.88;57.73;101221.38;5097479;28;20222;-54
2022/12/07 08:32:48;;;;;;;2.13;1.37;;;6.80;81.70;;;9.87;58.17;101222.34;5097670;28;20231;-54
2022/12/07 08:35:15;;;;;;;2.77;1.30;;;6.80;81.60;;;9.85;57.92;101226.94;5097215;28;20532;-57
2022/12/07 08:37:43;;;;;;;5.57;1.43;;;6.80;81.50;;;9.84;57.71;101230.56;5095597;28;20212;-55
2022/12/07 08:40:15;;;;;;;2.90;1.60;;;6.80;81.50;;;9.85;57.55;101238.28;5097181;28;20196;-56
2022/12/07 08:42:42;;;;;;;3.17;1.47;;;6.80;81.50;;;9.85;57.75;101221.69;5097001;28;20677;-56
2022/12/07 08:45:13;;;;;;;3.53;1.40;;;6.80;81.70;;;9.88;58.11;101221.38;5097117;28;20250;-56
2022/12/07 08:47:47;;;;;;;2.77;1.77;;;6.80;81.70;;;9.88;57.96;101221.38;5096993;28;20191;-55
2022/12/07 08:50:16;;;;;;;5.70;1.47;;;6.80;81.70;;;9.93;57.68;101225.19;5097239;28;20609;-54
2022/12/07 08:52:44;;;;;;;3.50;1.73;;;6.80;81.90;;;9.96;57.80;101229.31;5095352;28;20215;-56
2022/12/07 08:55:12;;;;;;;3.53;1.63;;;6.90;82.00;;;10.00;58.11;101230.63;5096773;28;20184;-57
2022/12/07 08:57:40;;;;;;;4.23;1.63;;;6.90;82.00;;;10.03;57.69;101235.59;5096523;28;20212;-54
2022/12/07 09:00:09;;;;;;;4.00;1.77;;;6.90;82.00;;;10.07;57.71;101239.53;5096866;28;20207;-56
2022/12/07 09:02:36;;;;;;;3.60;1.40;;;6.90;82.20;;;10.12;57.67;101242.56;5098202;28;20219;-57
2022/12/07 09:05:06;;;;;;;2.53;1.47;;;6.90;82.00;;;10.16;57.57;101246.50;5097250;28;20196;-55
2022/12/07 09:07:43;;;;;;;3.73;1.20;;;7.00;81.90;;;10.20;57.70;101237.31;5097414;28;20202;-54
2022/12/07 09:10:11;;;;;;;3.33;1.20;;;7.00;81.60;;;10.22;57.53;101240.63;5097130;28;20214;-55
2022/12/07 09:12:38;;;;;;;2.93;1.40;;;7.00;81.20;;;10.24;57.39;101238.66;5093647;28;20694;-55
2022/12/07 09:15:06;;;;;;;3.80;1.77;;;7.00;81.00;;;10.30;57.30;101235.38;5075558;28;20188;-54
2022/12/07 09:17:35;;;;;;;2.93;1.20;;;7.10;81.10;;;10.31;57.13;101237.03;5076139;28;20216;-56
2022/12/07 09:20:06;;;;;;;2.67;1.10;;;7.10;81.00;;;10.32;57.34;101233.38;5076442;28;20654;-56
2022/12/07 09:22:34;;;;;;;1.23;1.13;;;7.10;80.60;;;10.34;57.25;101226.16;5076127;28;20216;-55
2022/12/07 09:25:03;;;;;;;3.47;1.67;;;7.20;80.80;;;10.42;56.59;101230.63;5075704;28;20201;-53
2022/12/07 09:27:30;;;;;;;2.10;1.60;;;7.20;80.90;;;10.47;57.19;101229.16;5076804;28;20189;-53
2022/12/07 09:29:57;;;;;;;5.47;1.77;;;7.20;80.70;;;10.50;56.62;101228.00;5095572;28;20581;-53
2022/12/07 09:32:24;;;;;;;4.63;1.20;;;7.30;80.60;;;10.53;57.20;101232.97;5096022;28;20213;-54
2022/12/07 09:34:51;;;;;;;2.23;1.20;;;7.30;80.60;;;10.51;56.73;101225.22;5096515;28;20211;-55
2022/12/07 09:37:20;;;;;;;3.07;2.03;;;7.30;80.30;;;10.49;56.80;101221.94;5096364;28;20624;-54
2022/12/07 09:39:47;;;;;;;3.43;1.80;;;7.40;80.60;;;10.50;57.09;101233.28;5095449;28;20191;-54
2022/12/07 09:42:33;;;;;;;4.90;2.30;;;7.40;80.50;;;10.49;56.72;101227.19;5096052;28;20756;-54
2022/12/07 09:45:04;;;;;;;3.37;1.93;;;7.40;80.20;;;10.53;56.99;101220.59;5099642;28;20211;-57
2022/12/07 09:47:36;;;;;;;4.00;2.10;;;7.40;80.40;;;10.60;56.97;101223.44;5095796;28;20653;-55
2022/12/07 09:50:11;;;;;;;4.10;2.00;;;7.40;80.50;;;10.67;56.60;101219.97;5094779;28;20189;-55
2022/12/07 09:52:42;;;;;;;5.17;1.93;;;7.50;80.50;;;10.70;56.21;101214.38;5095510;28;20211;-55
2022/12/07 09:55:12;;;;;;;5.63;1.77;;;7.50;80.30;;;10.70;56.61;101214.38;5095594;28;20286;-55
2022/12/07 09:57:41;;;;;;;3.13;1.93;;;7.60;80.20;;;10.68;56.64;101205.81;5095323;28;20514;-55
2022/12/07 10:00:15;;;;;;;4.17;1.40;;;7.60;80.00;;;10.68;56.78;101219.00;5095889;28;20192;-54
2022/12/07 10:02:45;;;;;;;4.43;1.77;;;7.60;79.90;;;10.69;56.04;101212.75;5095481;28;20699;-52
2022/12/07 10:05:16;;;;;;;7.10;1.67;;;7.60;79.80;;;10.69;56.29;101204.84;5095627;28;20195;-58
2022/12/07 10:07:51;;;;;;;2.40;1.73;;;7.60;79.70;;;10.71;56.75;101204.69;5095597;28;20200;-56
2022/12/07 10:10:25;;;;;;;3.90;2.10;;;7.60;79.70;;;10.74;56.28;101210.41;5095300;28;20238;-56
2022/12/07 10:12:58;;;;;;;4.87;2.23;;;7.60;79.40;;;10.76;56.27;101213.75;5095502;28;20204;-54
2022/12/07 10:15:44;;;;;;;6.10;2.57;;;7.70;79.40;;;10.78;55.97;101217.03;5094699;28;20185;-53
2022/12/07 10:18:30;;;;;;;5.00;2.37;;;7.70;79.50;;;10.92;55.78;101217.34;5095101;28;20207;-54
2022/12/07 10:21:10;;;;;;;4.37;2.23;;;7.70;79.50;;;11.01;55.82;101219.81;5093039;28;20577;-55
2022/12/07 10:23:41;;;;;;;5.03;2.63;;;7.70;79.10;;;11.06;55.57;101214.88;5094483;28;20605;-55
2022/12/07 10:26:28;;;;;;;6.40;3.83;;;7.80;78.70;;;11.05;54.84;101212.41;5081806;28;20192;-56
2022/12/07 10:28:59;;;;;;;3.23;1.63;;;7.80;78.40;;;11.04;54.78;101206.31;5095588;28;20200;-53
2022/12/07 10:31:26;;;;;;;3.03;1.87;;;7.80;78.30;;;11.05;55.30;101213.25;5095182;28;20637;-59
2022/12/07 10:33:56;;;;;;;4.57;1.87;;;7.80;78.20;;;11.08;55.39;101197.09;5094991;28;20200;-55
2022/12/07 10:36:27;;;;;;;4.80;2.00;;;7.80;78.20;;;11.13;54.58;101194.78;5094938;28;20196;-55
2022/12/07 10:39:03;;;;;;;3.87;1.47;;;7.80;78.00;;;11.16;55.06;101198.91;5095271;28;20257;-56
2022/12/07 10:41:30;;;;;;;3.87;1.70;;;7.90;77.90;;;11.20;54.33;101194.94;5098895;28;20215;-56
2022/12/07 10:43:58;;;;;;;1.80;1.50;;;7.90;77.90;;;11.22;54.28;101193.78;5080948;28;20207;-54
2022/12/07 10:46:53;;;;;;;2.70;1.37;;;7.90;77.70;;;11.22;54.17;101190.34;5083608;28;20197;-56